Villa Grove, Illinois
Current Conditions -  °F | °C
As of 11:43 PM on Monday 26 Jan 2015 (Local Time) from KCMI Reporting Station
Haze Haze  
Wind Chill: 25°   Ceiling: 300
Heat Index: 30°   Visibility: 2.5mi
Dew Point: 28°   Wind: 5mph
Humidity: 92%   Direction: 170°S
Pressure: 29.89"   Gusts: NA
Location:  39.86°N, 88.16°W
Report Text: KCMI 270543Z AUTO 17004KT 2 1/2SM BR OVC003 M01/M02 A2989 RMK AO2 FZDZE0454 P0000 I1000 T10111022
Loading
Personal Weather Stations






























Interactive Weather Map New forecast layout! Learn more

10-Day Weather Forecast

Advertisements
Track Severe Weather on mobile